Time;durP1;ratioP1;P1;durP2;ratioP2;P2;SDS_P1;SDS_P2;PMS_P1;PMS_P2;Temp;Humidity;BMP_temperature;BMP_pressure;BME280_temperature;BME280_humidity;BME280_pressure;Samples;Min_cycle;Max_cycle;Signal;HPM_P1;HPM_P2
2023/10/10 00:01:44;;;;;;;4.40;3.40;;;;;;;6.64;100.00;99746.76;108542;1253;69177;-64
2023/10/10 00:04:12;;;;;;;6.00;3.20;;;;;;;6.63;100.00;99749.05;108451;1250;72960;-63
2023/10/10 00:06:40;;;;;;;6.70;3.70;;;;;;;6.60;100.00;99749.65;108577;1251;61119;-63
2023/10/10 00:09:11;;;;;;;5.80;3.90;;;;;;;6.56;100.00;99748.70;108541;1250;59756;-64
2023/10/10 00:11:48;;;;;;;5.60;3.40;;;;;;;6.43;100.00;99752.67;108555;1252;72924;-66
2023/10/10 00:14:19;;;;;;;8.30;3.60;;;;;;;6.34;100.00;99746.96;108560;1253;69088;-65
2023/10/10 00:16:54;;;;;;;6.70;3.70;;;;;;;6.26;100.00;99745.77;108637;1250;72505;-64
2023/10/10 00:19:29;;;;;;;6.60;3.60;;;;;;;6.21;100.00;99748.14;108596;1250;60042;-63
2023/10/10 00:21:59;;;;;;;6.50;3.60;;;;;;;6.15;100.00;99751.07;108475;1250;59704;-63
2023/10/10 00:24:33;;;;;;;4.60;3.40;;;;;;;6.07;100.00;99751.60;108557;1250;73266;-65
2023/10/10 00:27:12;;;;;;;3.80;2.90;;;;;;;6.05;100.00;99755.64;108621;1250;68539;-63
2023/10/10 00:29:44;;;;;;;4.50;3.10;;;;;;;6.05;100.00;99757.91;108444;1250;72518;-63
2023/10/10 00:32:22;;;;;;;6.40;3.90;;;;;;;6.06;100.00;99762.58;108468;1250;60989;-64
2023/10/10 00:34:50;;;;;;;4.40;2.90;;;;;;;6.03;100.00;99761.42;108473;1250;59717;-63
2023/10/10 00:37:21;;;;;;;6.80;3.50;;;;;;;5.99;100.00;99762.21;108475;1250;74610;-64
2023/10/10 00:39:52;;;;;;;5.70;3.70;;;;;;;5.92;100.00;99760.25;108359;1250;69014;-64
2023/10/10 00:42:21;;;;;;;6.30;3.60;;;;;;;5.90;100.00;99759.79;108413;1251;72338;-63
2023/10/10 00:44:49;;;;;;;4.20;3.20;;;;;;;5.86;100.00;99756.58;108431;1250;60593;-63
2023/10/10 00:47:21;;;;;;;6.70;3.60;;;;;;;5.81;100.00;99757.70;108599;1255;59433;-63
2023/10/10 00:49:50;;;;;;;6.70;3.00;;;;;;;5.80;100.00;99754.77;108276;1250;72872;-63
2023/10/10 00:52:17;;;;;;;7.80;3.60;;;;;;;5.85;100.00;99752.05;108551;1250;70036;-65
2023/10/10 00:54:45;;;;;;;5.10;3.30;;;;;;;5.83;100.00;99751.73;108221;1250;71924;-62
2023/10/10 00:57:16;;;;;;;6.70;3.40;;;;;;;5.85;100.00;99753.45;108481;1253;61019;-64
2023/10/10 00:59:44;;;;;;;5.20;3.30;;;;;;;5.88;100.00;99753.74;108419;1250;60105;-64
2023/10/10 01:02:16;;;;;;;5.40;3.70;;;;;;;5.82;100.00;99743.25;108534;1250;71912;-63
2023/10/10 01:07:18;;;;;;;5.80;3.90;;;;;;;5.84;100.00;99751.56;108292;1250;72208;-62
2023/10/10 01:10:07;;;;;;;5.90;3.00;;;;;;;5.83;100.00;99753.48;108312;1253;60778;-64
2023/10/10 01:12:39;;;;;;;5.40;3.40;;;;;;;5.83;100.00;99750.70;108541;1251;60115;-63
2023/10/10 01:15:33;;;;;;;5.10;3.50;;;;;;;5.84;100.00;99751.73;108316;1251;72788;-63
2023/10/10 01:18:01;;;;;;;6.20;3.50;;;;;;;5.84;100.00;99749.45;108445;1250;69075;-63
2023/10/10 01:20:45;;;;;;;4.70;3.20;;;;;;;5.84;100.00;99753.29;108381;1253;72879;-63
2023/10/10 01:23:15;;;;;;;4.10;3.00;;;;;;;5.84;100.00;99754.16;108375;1251;60882;-62
2023/10/10 01:25:45;;;;;;;4.80;3.40;;;;;;;5.86;100.00;99756.05;108284;1250;61209;-62
2023/10/10 01:28:15;;;;;;;5.30;3.40;;;;;;;5.87;100.00;99755.67;108538;1252;73693;-62
2023/10/10 01:33:29;;;;;;;7.90;3.70;;;;;;;5.82;100.00;99756.47;108555;1251;71371;-63
2023/10/10 01:35:58;;;;;;;4.40;3.10;;;;;;;5.80;100.00;99760.15;108489;1252;60616;-63
2023/10/10 01:38:32;;;;;;;7.80;3.80;;;;;;;5.79;100.00;99762.45;108309;1251;59468;-62
2023/10/10 01:41:05;;;;;;;3.90;3.20;;;;;;;5.82;100.00;99768.12;108558;1253;72799;-63
2023/10/10 01:43:33;;;;;;;8.30;3.70;;;;;;;5.81;100.00;99767.27;108197;1250;70366;-63
2023/10/10 01:46:15;;;;;;;5.80;3.20;;;;;;;5.81;100.00;99767.80;108481;1253;72757;-63
2023/10/10 01:48:43;;;;;;;7.20;4.30;;;;;;;5.82;100.00;99767.42;108478;1251;60704;-63
2023/10/10 01:51:15;;;;;;;6.20;4.00;;;;;;;5.82;100.00;99769.16;108529;1250;59732;-64
2023/10/10 01:53:43;;;;;;;3.90;3.50;;;;;;;5.85;100.00;99769.47;108548;1250;72755;-63
2023/10/10 01:56:13;;;;;;;6.60;3.60;;;;;;;5.86;100.00;99768.77;108592;1250;70073;-67
2023/10/10 01:58:41;;;;;;;6.10;3.30;;;;;;;5.85;100.00;99770.14;108552;1250;71885;-63
2023/10/10 02:01:19;;;;;;;6.40;3.70;;;;;;;5.86;100.00;99766.98;108402;1253;62894;-63
2023/10/10 02:03:47;;;;;;;4.60;3.80;;;;;;;5.86;100.00;99758.81;108547;1250;61982;-63
2023/10/10 02:06:27;;;;;;;6.80;3.70;;;;;;;5.90;100.00;99761.36;108566;1250;74090;-66
2023/10/10 02:09:11;;;;;;;4.30;3.60;;;;;;;5.90;100.00;99767.62;108501;1253;70063;-63
2023/10/10 02:11:49;;;;;;;6.30;4.10;;;;;;;5.89;100.00;99771.64;108538;1251;73297;-64
2023/10/10 02:14:19;;;;;;;;;;;;;;;5.92;100.00;99770.86;108454;1252;60943;-63
2023/10/10 02:16:48;;;;;;;7.10;3.80;;;;;;;5.90;100.00;99768.46;108603;1250;59449;-63
2023/10/10 02:19:24;;;;;;;8.20;4.00;;;;;;;5.84;100.00;99771.73;108534;1250;74569;-64
2023/10/10 02:22:03;;;;;;;5.50;3.90;;;;;;;5.81;100.00;99769.17;108510;1250;69976;-64
2023/10/10 02:27:04;;;;;;;;;;;;;;;5.75;100.00;99764.25;108486;1250;60831;-63
2023/10/10 02:29:35;;;;;;;4.50;3.70;;;;;;;5.63;100.00;99767.98;108335;1253;59568;-64
2023/10/10 02:32:10;;;;;;;6.10;3.50;;;;;;;5.60;100.00;99768.41;108514;1250;73665;-63
2023/10/10 02:34:38;;;;;;;4.10;3.30;;;;;;;5.56;100.00;99764.83;108454;1250;72195;-63
2023/10/10 02:39:48;;;;;;;7.90;3.90;;;;;;;5.49;100.00;99767.59;108502;1253;61582;-64
2023/10/10 02:42:19;;;;;;;5.60;3.90;;;;;;;5.39;100.00;99768.64;108540;1250;59835;-67
2023/10/10 02:44:48;;;;;;;6.70;4.40;;;;;;;5.33;100.00;99765.98;108532;1251;73699;-62
2023/10/10 02:47:36;;;;;;;5.50;3.80;;;;;;;5.29;100.00;99766.92;108389;1251;69816;-62
2023/10/10 02:50:12;;;;;;;4.80;3.50;;;;;;;5.20;100.00;99762.58;108550;1250;72929;-63
2023/10/10 02:52:45;;;;;;;6.80;3.80;;;;;;;5.20;100.00;99758.92;108404;1253;60586;-64
2023/10/10 02:55:16;;;;;;;4.80;3.50;;;;;;;5.22;100.00;99754.55;108573;1251;59726;-64
2023/10/10 02:57:46;;;;;;;6.00;3.60;;;;;;;5.21;100.00;99756.13;108531;1250;73623;-62
2023/10/10 03:02:53;;;;;;;5.00;3.40;;;;;;;5.23;100.00;99754.70;108337;1250;71448;-62
2023/10/10 03:05:39;;;;;;;5.10;3.90;;;;;;;5.27;100.00;99755.84;108556;1251;59626;-63
2023/10/10 03:08:18;;;;;;;5.00;3.40;;;;;;;5.24;100.00;99754.86;108573;1250;59696;-63
2023/10/10 03:10:53;;;;;;;3.60;3.00;;;;;;;5.23;100.00;99754.18;108160;1251;72490;-62
2023/10/10 03:13:30;;;;;;;5.30;3.50;;;;;;;5.21;100.00;99756.48;108309;1253;69070;-63
2023/10/10 03:17:31;;;;;;;5.40;3.20;;;;;;;5.23;100.00;99752.61;108498;1252;71905;-63
2023/10/10 03:24:51;;;;;;;6.10;3.70;;;;;;;5.12;100.00;99752.83;108477;1250;74138;-62
2023/10/10 03:29:47;;;;;;;6.50;3.70;;;;;;;5.12;100.00;99756.66;108482;1250;72349;-62
2023/10/10 03:34:56;;;;;;;5.30;3.40;;;;;;;5.07;100.00;99768.04;108419;1250;59798;-62
2023/10/10 03:40:20;;;;;;;4.60;3.60;;;;;;;5.02;100.00;99773.52;108378;1250;69317;-61
2023/10/10 05:23:34;;;;;;;6.00;4.00;;;;;;;5.19;100.00;99836.64;108402;1251;60580;-60
2023/10/10 05:26:02;;;;;;;9.50;4.50;;;;;;;5.30;100.00;99834.02;108451;1255;59716;-65
2023/10/10 05:28:32;;;;;;;5.50;3.80;;;;;;;5.37;100.00;99838.39;108455;1251;74534;-64
2023/10/10 05:31:02;;;;;;;5.00;3.50;;;;;;;5.47;100.00;99839.61;108481;1251;69397;-66
2023/10/10 05:33:36;;;;;;;6.90;4.60;;;;;;;5.55;100.00;99835.61;108462;1254;73274;-64
2023/10/10 05:36:06;;;;;;;5.90;4.00;;;;;;;5.61;100.00;99834.45;108488;1253;61730;-65
2023/10/10 05:38:36;;;;;;;4.30;3.80;;;;;;;5.73;100.00;99833.36;108280;1251;59770;-65
2023/10/10 05:44:16;;;;;;;5.70;4.20;;;;;;;5.97;100.00;99839.34;101357;1294;615604;-61
2023/10/10 05:46:43;;;;;;;7.00;4.40;;;;;;;6.06;100.00;99844.72;103760;1280;61171;-61
2023/10/10 05:49:10;;;;;;;7.10;3.90;;;;;;;6.14;100.00;99845.27;103902;1268;60281;-61
2023/10/10 05:51:37;;;;;;;4.30;3.80;;;;;;;6.19;100.00;99837.98;103843;1270;72613;-62
2023/10/10 05:54:04;;;;;;;7.40;3.90;;;;;;;6.26;100.00;99838.39;103988;1268;70176;-63
2023/10/10 05:56:34;;;;;;;9.10;4.80;;;;;;;6.34;100.00;99841.50;103825;1271;256152;-65
2023/10/10 05:59:02;;;;;;;9.30;4.80;;;;;;;6.38;100.00;99846.13;104382;1260;60908;-63
2023/10/10 06:01:31;;;;;;;5.40;3.90;;;;;;;6.46;100.00;99852.40;104451;1257;60077;-63
2023/10/10 06:03:57;;;;;;;5.20;4.00;;;;;;;6.54;100.00;99851.52;104619;1257;70752;-62
2023/10/10 06:06:27;;;;;;;6.60;4.40;;;;;;;6.60;100.00;99855.36;104356;1259;69323;-62
2023/10/10 06:09:00;;;;;;;6.60;3.90;;;;;;;6.69;100.00;99853.77;104329;1260;72470;-63
2023/10/10 06:11:29;;;;;;;6.20;3.90;;;;;;;6.79;100.00;99852.50;104365;1273;60984;-62
2023/10/10 06:13:56;;;;;;;7.40;3.80;;;;;;;6.89;100.00;99856.27;104420;1264;60771;-64
2023/10/10 06:16:23;;;;;;;7.70;4.00;;;;;;;7.01;100.00;99853.70;104324;1260;71886;-65
2023/10/10 06:18:50;;;;;;;5.20;4.30;;;;;;;7.12;100.00;99860.23;104422;1260;68698;-62
2023/10/10 06:21:20;;;;;;;7.10;4.30;;;;;;;7.21;99.67;99863.83;104343;1263;71401;-61
2023/10/10 06:23:49;;;;;;;4.80;3.70;;;;;;;7.24;98.46;99873.86;104423;1260;61552;-65
2023/10/10 06:26:21;;;;;;;5.90;3.70;;;;;;;7.28;97.76;99871.52;104200;1261;60029;-62
2023/10/10 06:28:53;;;;;;;6.70;4.00;;;;;;;7.34;97.61;99868.73;104708;1259;72818;-61
2023/10/10 06:31:20;;;;;;;6.80;4.30;;;;;;;7.42;97.51;99867.67;104366;1256;70058;-61
2023/10/10 06:33:51;;;;;;;4.30;3.50;;;;;;;7.52;96.28;99870.37;105217;1254;73084;-60
2023/10/10 06:41:40;;;;;;;5.10;3.50;;;;;;;7.95;96.06;99874.95;107942;1257;73046;-59
2023/10/10 07:27:12;;;;;;;3.60;3.30;;;;;;;8.60;90.42;99884.41;104326;1257;60014;-63
2023/10/10 07:32:18;;;;;;;5.90;3.60;;;;;;;8.74;89.94;99877.66;104345;1259;69228;-61
2023/10/10 07:34:51;;;;;;;5.80;3.50;;;;;;;8.83;89.73;99871.63;104755;1257;72501;-62
2023/10/10 07:37:18;;;;;;;3.90;3.10;;;;;;;8.96;89.68;99872.80;106983;1257;59859;-64
2023/10/10 07:42:34;;;;;;;4.40;3.80;;;;;;;9.15;89.13;99870.59;104395;1260;72909;-61
2023/10/10 07:45:03;;;;;;;5.30;3.50;;;;;;;9.25;89.07;99873.38;104305;1275;69774;-63
2023/10/10 07:47:32;;;;;;;4.80;3.50;;;;;;;9.39;88.78;99870.48;104833;1257;72606;-62
2023/10/10 07:50:00;;;;;;;4.10;3.20;;;;;;;9.54;88.81;99872.59;104680;1273;60704;-63
2023/10/10 07:52:27;;;;;;;;;;;;;;;9.69;88.52;99871.52;104380;1260;59797;-62
2023/10/10 07:55:01;;;;;;;8.40;3.50;;;;;;;9.84;88.32;99875.89;104263;1276;72795;-61
2023/10/10 07:57:37;;;;;;;6.00;3.60;;;;;;;9.98;87.71;99872.78;104283;1267;69982;-62
2023/10/10 08:00:16;;;;;;;4.30;3.40;;;;;;;10.11;86.84;99874.05;104382;1259;71504;-61
2023/10/10 08:02:49;;;;;;;3.10;2.50;;;;;;;10.24;85.13;99880.38;104325;1255;61129;-62
2023/10/10 08:05:21;;;;;;;6.60;2.90;;;;;;;10.33;84.43;99876.91;104519;1260;60128;-62
2023/10/10 08:07:48;;;;;;;5.00;3.20;;;;;;;10.49;83.93;99875.97;104473;1257;72603;-63
2023/10/10 08:10:37;;;;;;;5.00;3.20;;;;;;;10.62;82.37;99878.96;104367;1261;69666;-62
2023/10/10 08:13:10;;;;;;;4.30;3.10;;;;;;;10.76;81.43;99878.43;104311;1278;72563;-61
2023/10/10 08:15:52;;;;;;;3.90;2.70;;;;;;;10.89;80.75;99877.52;104390;1260;61817;-61
2023/10/10 08:21:12;;;;;;;3.20;2.60;;;;;;;11.18;77.69;99877.96;104290;1266;72741;-62
2023/10/10 08:23:43;;;;;;;6.20;2.60;;;;;;;11.32;77.01;99881.58;104589;1260;69503;-64
2023/10/10 08:26:17;;;;;;;3.90;2.80;;;;;;;11.45;75.91;99877.88;104087;1261;73069;-61
2023/10/10 08:28:45;;;;;;;4.50;2.70;;;;;;;11.53;75.46;99873.33;104261;1255;62567;-60
2023/10/10 08:31:15;;;;;;;3.50;2.50;;;;;;;11.61;75.37;99873.16;104420;1257;60067;-60
2023/10/10 08:33:47;;;;;;;3.90;2.40;;;;;;;11.70;74.80;99870.80;104349;1264;71780;-62
2023/10/10 08:36:23;;;;;;;2.90;1.60;;;;;;;11.80;74.32;99864.61;106825;1257;69852;-60
2023/10/10 08:38:54;;;;;;;2.30;1.70;;;;;;;11.92;73.54;99864.81;108248;1256;73069;-59
2023/10/10 08:41:23;;;;;;;2.40;2.00;;;;;;;11.98;71.41;99865.42;104724;1257;61176;-60
2023/10/10 08:44:01;;;;;;;4.00;1.80;;;;;;;12.00;70.05;99872.00;106238;1257;59812;-60
2023/10/10 08:46:32;;;;;;;4.10;2.20;;;;;;;12.06;70.61;99875.73;108273;1257;73143;-61
2023/10/10 08:48:59;;;;;;;5.70;2.60;;;;;;;12.14;69.96;99881.00;107660;1256;70030;-64
2023/10/10 08:51:32;;;;;;;2.60;2.30;;;;;;;12.16;69.55;99875.86;104461;1258;71870;-60
2023/10/10 08:54:12;;;;;;;2.60;2.30;;;;;;;12.19;69.46;99877.99;104324;1257;60286;-61
2023/10/10 08:56:43;;;;;;;3.70;2.50;;;;;;;12.25;68.90;99879.30;104309;1260;60090;-63
2023/10/10 08:59:12;;;;;;;4.50;2.60;;;;;;;12.32;67.76;99881.11;104478;1260;72590;-62
2023/10/10 09:01:39;;;;;;;2.50;2.20;;;;;;;12.39;67.81;99885.17;104640;1257;70002;-64
2023/10/10 09:04:12;;;;;;;4.30;2.70;;;;;;;12.47;67.71;99886.38;104189;1255;72510;-64
2023/10/10 09:06:57;;;;;;;3.20;2.80;;;;;;;12.56;67.42;99884.36;104435;1260;60966;-65
2023/10/10 09:09:40;;;;;;;2.90;2.60;;;;;;;12.63;66.22;99888.41;104220;1256;60065;-64
2023/10/10 09:12:14;;;;;;;2.90;1.90;;;;;;;12.70;65.58;99883.54;104442;1257;73439;-65
2023/10/10 09:14:51;;;;;;;6.40;2.40;;;;;;;12.81;66.09;99883.33;104695;1260;70252;-66
2023/10/10 09:17:28;;;;;;;2.50;2.10;;;;;;;12.92;64.20;99873.31;104546;1260;72986;-68
2023/10/10 09:19:57;;;;;;;3.30;2.00;;;;;;;12.96;62.35;99876.62;104894;1257;59915;-66
2023/10/10 09:22:43;;;;;;;3.50;1.80;;;;;;;13.05;61.80;99870.92;104315;1255;59871;-66
2023/10/10 09:25:26;;;;;;;57.60;31.70;;;;;;;13.13;62.08;99876.19;104418;1259;71637;-64
2023/10/10 09:27:58;;;;;;;39.10;23.90;;;;;;;13.22;61.26;99874.83;106095;1255;69409;-67
2023/10/10 09:30:34;;;;;;;38.50;25.60;;;;;;;13.35;61.12;99875.27;108226;1256;71542;-66
2023/10/10 09:33:13;;;;;;;44.10;30.90;;;;;;;13.47;60.27;99869.05;105311;1255;61103;-65
2023/10/10 09:35:40;;;;;;;105.40;70.30;;;;;;;13.65;60.19;99874.65;104712;1259;60818;-62
2023/10/10 09:38:14;;;;;;;99.90;73.10;;;;;;;13.78;59.58;99876.04;104568;1261;72116;-66
2023/10/10 09:40:42;;;;;;;31.80;19.40;;;;;;;13.86;58.26;99873.20;104308;1258;68094;-67
2023/10/10 09:43:12;;;;;;;19.80;11.00;;;;;;;13.93;58.00;99867.89;104185;1267;75150;-66
2023/10/10 09:45:55;;;;;;;10.20;6.40;;;;;;;14.01;58.18;99867.63;104355;1260;60242;-64
2023/10/10 09:48:59;;;;;;;5.50;2.90;;;;;;;14.11;58.23;99871.83;104416;1273;60344;-65
2023/10/10 09:51:30;;;;;;;8.50;4.90;;;;;;;14.27;56.12;99867.96;104611;1267;73526;-64
2023/10/10 09:54:07;;;;;;;3.10;2.10;;;;;;;14.44;55.90;99871.46;104549;1256;69434;-64
2023/10/10 09:59:28;;;;;;;100.30;71.90;;;;;;;14.06;56.39;99878.09;101290;1294;615812;-65
2023/10/10 10:02:00;;;;;;;72.00;49.40;;;;;;;14.52;53.75;99877.71;103542;1266;59236;-65
2023/10/10 10:04:28;;;;;;;70.20;53.30;;;;;;;14.61;53.42;99880.27;103746;1278;60211;-66
2023/10/10 10:06:58;;;;;;;52.90;37.10;;;;;;;14.73;53.18;99877.86;103795;1265;72372;-66
2023/10/10 10:09:47;;;;;;;48.80;30.00;;;;;;;14.85;52.12;99876.10;103957;1266;70064;-65
2023/10/10 10:12:29;;;;;;;23.10;11.20;;;;;;;14.92;50.48;99876.55;103439;1263;309120;-65
2023/10/10 10:15:00;;;;;;;15.90;11.30;;;;;;;14.90;50.32;99866.25;104236;1263;60264;-65
2023/10/10 10:17:47;;;;;;;39.20;32.30;;;;;;;14.94;50.42;99870.47;103996;1265;59809;-65
2023/10/10 10:20:46;;;;;;;46.80;41.10;;;;;;;14.98;48.85;99874.27;104052;1263;71777;-64
2023/10/10 10:23:26;;;;;;;106.80;87.50;;;;;;;14.99;48.91;99874.04;103861;1269;70062;-63
2023/10/10 10:26:12;;;;;;;442.60;330.40;;;;;;;15.01;48.61;99876.76;104156;1265;73222;-67
2023/10/10 10:28:42;;;;;;;66.80;39.00;;;;;;;14.98;48.11;99879.44;104159;1263;60449;-65
2023/10/10 10:31:28;;;;;;;83.00;55.80;;;;;;;14.91;47.99;99882.09;104066;1275;59785;-65
2023/10/10 10:34:05;;;;;;;108.60;76.10;;;;;;;14.75;48.05;99884.41;104112;1268;73939;-66
2023/10/10 10:36:41;;;;;;;47.60;34.40;;;;;;;14.60;48.05;99886.66;104019;1263;69786;-67
2023/10/10 10:39:19;;;;;;;342.80;261.00;;;;;;;14.48;48.11;99892.21;107087;1262;73877;-67
2023/10/10 10:41:53;;;;;;;172.30;131.50;;;;;;;14.46;48.88;99891.46;107003;1264;60207;-68
2023/10/10 10:44:44;;;;;;;135.30;105.20;;;;;;;14.42;48.73;99888.84;104186;1265;60187;-66
2023/10/10 10:47:35;;;;;;;503.70;403.30;;;;;;;14.33;48.09;99880.35;104260;1265;72841;-66
2023/10/10 10:50:04;;;;;;;108.20;77.90;;;;;;;14.28;47.50;99889.27;103979;1264;70431;-67
2023/10/10 10:53:08;;;;;;;302.80;201.10;;;;;;;14.28;48.09;99889.30;103975;1263;71279;-67
2023/10/10 10:55:41;;;;;;;117.40;86.70;;;;;;;14.38;47.68;99883.27;103973;1263;60497;-66
2023/10/10 11:01:08;;;;;;;117.70;89.10;;;;;;;14.64;47.23;99883.63;104159;1266;73488;-65
2023/10/10 11:03:36;;;;;;;64.10;40.10;;;;;;;14.76;47.39;99890.55;103906;1278;70121;-66
2023/10/10 11:06:06;;;;;;;62.30;43.60;;;;;;;14.85;46.76;99889.52;104345;1267;72252;-68
2023/10/10 11:08:52;;;;;;;45.80;33.80;;;;;;;14.96;46.53;99884.83;104003;1266;60442;-64
2023/10/10 11:16:46;;;;;;;80.20;72.40;;;;;;;15.09;43.63;99886.17;104052;1268;68766;-59
2023/10/10 11:21:50;;;;;;;52.80;45.20;;;;;;;15.21;44.28;99883.93;103949;1263;60201;-60
2023/10/10 11:24:24;;;;;;;109.10;97.80;;;;;;;15.35;43.18;99887.33;103979;1273;60074;-60
2023/10/10 11:27:07;;;;;;;39.50;33.10;;;;;;;15.47;43.65;99895.31;103988;1264;71811;-62
2023/10/10 11:29:34;;;;;;;35.00;31.60;;;;;;;15.46;42.37;99895.34;103933;1279;69479;-59
2023/10/10 11:32:08;;;;;;;15.50;14.00;;;;;;;15.34;43.04;99895.89;104580;1263;72939;-62
2023/10/10 11:34:44;;;;;;;40.10;36.00;;;;;;;15.25;43.00;99900.81;104729;1266;60099;-61
2023/10/10 11:37:21;;;;;;;13.30;11.70;;;;;;;15.16;43.40;99903.64;104049;1266;59778;-61
2023/10/10 11:39:57;;;;;;;52.40;46.90;;;;;;;15.16;43.12;99905.73;104209;1265;75010;-61
2023/10/10 11:42:33;;;;;;;46.30;41.40;;;;;;;15.29;43.16;99899.14;104144;1268;70493;-61
2023/10/10 11:45:04;;;;;;;71.20;64.40;;;;;;;15.47;42.20;99896.89;104231;1263;72890;-61
2023/10/10 11:47:42;;;;;;;26.30;21.60;;;;;;;15.66;42.26;99888.52;104295;1265;59635;-60
2023/10/10 11:50:11;;;;;;;27.00;23.40;;;;;;;15.85;41.10;99897.30;104246;1264;59701;-61
2023/10/10 11:52:52;;;;;;;39.80;35.50;;;;;;;15.88;40.21;99890.05;103986;1265;71955;-59
2023/10/10 11:55:20;;;;;;;47.00;40.40;;;;;;;15.74;38.89;99888.61;104219;1265;69676;-61
2023/10/10 11:57:54;;;;;;;43.70;39.50;;;;;;;15.63;39.21;99891.16;104089;1266;71365;-63
2023/10/10 12:00:22;;;;;;;149.70;117.50;;;;;;;15.56;39.53;99892.79;104326;1272;60008;-63
2023/10/10 12:02:57;;;;;;;32.80;24.70;;;;;;;15.52;39.47;99894.11;103990;1280;60041;-61
2023/10/10 12:08:05;;;;;;;104.20;93.10;;;;;;;15.40;39.90;99907.58;104034;1268;70411;-60
2023/10/10 12:10:55;;;;;;;210.80;187.70;;;;;;;15.32;39.95;99911.18;103902;1268;73856;-61
2023/10/10 12:16:00;;;;;;;117.80;92.80;;;;;;;15.25;39.99;99914.09;104003;1265;60458;-61
2023/10/10 12:18:30;;;;;;;224.90;195.60;;;;;;;15.23;40.74;99917.16;104292;1267;74932;-61
2023/10/10 12:21:02;;;;;;;84.60;63.90;;;;;;;15.18;40.70;99916.40;104212;1264;69857;-61
2023/10/10 12:23:31;;;;;;;49.70;37.30;;;;;;;15.12;40.79;99921.54;104510;1264;73433;-62
2023/10/10 12:25:59;;;;;;;17.30;14.60;;;;;;;15.07;40.79;99921.61;104104;1266;59378;-61
2023/10/10 12:28:29;;;;;;;105.20;91.20;;;;;;;15.00;40.59;99922.39;103909;1263;59864;-61
2023/10/10 12:30:56;;;;;;;143.20;116.70;;;;;;;14.95;41.16;99922.48;103928;1267;73819;-61
2023/10/10 12:33:24;;;;;;;214.70;181.40;;;;;;;15.03;41.75;99927.17;104616;1266;70000;-61
2023/10/10 12:35:56;;;;;;;135.80;116.90;;;;;;;15.17;41.49;99929.54;104117;1267;76485;-62
2023/10/10 12:38:25;;;;;;;44.70;33.90;;;;;;;15.26;41.35;99924.41;104297;1262;59894;-61
2023/10/10 12:40:52;;;;;;;113.30;101.10;;;;;;;15.31;40.89;99925.38;107475;1259;62157;-63
2023/10/10 12:43:20;;;;;;;54.90;45.00;;;;;;;15.29;40.91;99927.80;107561;1259;74072;-62
2023/10/10 12:45:50;;;;;;;286.70;256.30;;;;;;;15.24;41.19;99931.98;107540;1259;68496;-61
2023/10/10 12:48:21;;;;;;;51.30;42.20;;;;;;;15.22;41.08;99932.10;107577;1259;72513;-61
2023/10/10 12:50:51;;;;;;;51.30;42.80;;;;;;;15.19;41.23;99938.40;107435;1259;59835;-62
2023/10/10 12:53:19;;;;;;;50.60;43.40;;;;;;;15.14;40.98;99936.92;106637;1259;60089;-64
2023/10/10 12:55:52;;;;;;;57.60;43.90;;;;;;;15.07;41.07;99933.30;104025;1262;74623;-62
2023/10/10 12:58:22;;;;;;;288.10;231.70;;;;;;;15.01;40.74;99933.80;103938;1281;68730;-60
2023/10/10 13:00:50;;;;;;;80.60;56.20;;;;;;;14.96;40.61;99935.48;103945;1275;74123;-63
2023/10/10 13:03:28;;;;;;;70.30;51.00;;;;;;;14.94;40.80;99936.31;104048;1263;61825;-62
2023/10/10 13:06:00;;;;;;;29.40;23.50;;;;;;;14.95;40.90;99939.59;104192;1259;61572;-63
2023/10/10 13:11:20;;;;;;;45.90;34.30;;;;;;;15.11;40.70;99947.36;104200;1262;69776;-63
2023/10/10 13:13:56;;;;;;;72.90;51.30;;;;;;;15.28;40.72;99947.29;104228;1265;73967;-62
2023/10/10 13:19:13;;;;;;;96.40;68.00;;;;;;;15.54;40.51;99945.74;104432;1262;60898;-63
2023/10/10 13:21:41;;;;;;;79.80;53.90;;;;;;;15.53;40.64;99941.17;104029;1275;72993;-64
2023/10/10 13:24:13;;;;;;;23.50;17.20;;;;;;;15.46;40.55;99950.64;104685;1259;69269;-64
2023/10/10 13:26:45;;;;;;;15.00;10.70;;;;;;;15.42;40.21;99948.77;104215;1262;73932;-63
2023/10/10 13:29:15;;;;;;;66.30;53.40;;;;;;;15.48;40.23;99943.46;104492;1254;60320;-62
2023/10/10 13:31:46;;;;;;;68.30;61.00;;;;;;;15.75;40.17;99944.73;104510;1259;60945;-62
2023/10/10 13:34:16;;;;;;;20.40;18.10;;;;;;;16.11;39.87;99942.71;104914;1254;72614;-63
2023/10/10 13:36:44;;;;;;;6.00;5.10;;;;;;;16.50;39.53;99942.98;104441;1259;70404;-62
2023/10/10 13:39:16;;;;;;;281.60;251.30;;;;;;;16.85;39.01;99939.22;104605;1254;73162;-63
2023/10/10 13:41:43;;;;;;;68.50;55.20;;;;;;;17.19;38.92;99938.79;104448;1269;61116;-63
2023/10/10 13:44:11;;;;;;;119.80;89.90;;;;;;;17.41;38.55;99939.65;104689;1257;60810;-63
2023/10/10 13:46:38;;;;;;;51.80;33.30;;;;;;;17.65;38.23;99945.34;104380;1272;74516;-64
2023/10/10 13:49:08;;;;;;;275.30;177.40;;;;;;;17.81;37.65;99945.65;104439;1259;69493;-65
2023/10/10 13:51:41;;;;;;;121.30;67.40;;;;;;;17.72;37.49;99949.29;104501;1254;73309;-64
2023/10/10 13:54:09;;;;;;;66.90;43.30;;;;;;;17.83;37.51;99954.41;104512;1256;60527;-64
2023/10/10 13:56:36;;;;;;;24.00;16.00;;;;;;;17.92;37.30;99948.14;104322;1256;59976;-66
2023/10/10 13:59:04;;;;;;;;;;;;;;;17.92;37.45;99948.15;104641;1254;73462;-65
2023/10/10 14:01:39;;;;;;;316.10;179.00;;;;;;;18.03;37.23;99949.02;104357;1260;70562;-67
2023/10/10 14:04:23;;;;;;;128.70;73.20;;;;;;;18.15;37.33;99947.83;104312;1259;72980;-66
2023/10/10 14:06:53;;;;;;;39.80;22.10;;;;;;;18.21;36.92;99950.75;104572;1256;62433;-65
2023/10/10 14:09:31;;;;;;;11.10;6.30;;;;;;;18.17;36.70;99953.02;104377;1270;60939;-66
2023/10/10 14:12:02;;;;;;;4.40;3.30;;;;;;;18.07;36.88;99960.77;104490;1259;73036;-68
2023/10/10 14:14:30;;;;;;;2.70;2.10;;;;;;;17.89;36.84;99966.98;104380;1269;70328;-66
2023/10/10 14:16:57;;;;;;;;;;;;;;;17.69;36.67;99970.45;104257;1259;73029;-64
2023/10/10 14:19:24;;;;;;;3.90;1.20;;;;;;;17.45;36.13;99974.13;104345;1268;60581;-68
2023/10/10 14:21:54;;;;;;;1.40;1.20;;;;;;;17.28;36.69;99979.52;105152;1254;60572;-68
2023/10/10 14:24:21;;;;;;;1.40;0.80;;;;;;;17.07;36.48;99984.22;105114;1252;74071;-67
2023/10/10 14:26:51;;;;;;;1.50;0.70;;;;;;;16.89;36.84;99994.75;105005;1251;70010;-67
2023/10/10 14:29:19;;;;;;;2.60;0.70;;;;;;;16.67;37.21;99998.02;104870;1259;73260;-67
2023/10/10 14:31:57;;;;;;;1.10;0.90;;;;;;;16.41;37.75;100001.44;104890;1252;60498;-68
2023/10/10 14:34:25;;;;;;;2.10;1.20;;;;;;;16.18;38.11;100008.99;104652;1260;60820;-67
2023/10/10 14:36:53;;;;;;;1.20;1.00;;;;;;;16.00;38.21;100009.92;107013;1254;74353;-67
2023/10/10 14:39:31;;;;;;;3.20;1.90;;;;;;;15.78;38.28;100011.86;105223;1256;70113;-67
2023/10/10 14:41:58;;;;;;;9.40;2.40;;;;;;;15.61;38.55;100015.54;108408;1252;72433;-68
2023/10/10 14:44:28;;;;;;;10.10;3.60;;;;;;;15.46;38.79;100019.35;106686;1256;60476;-68
2023/10/10 14:46:55;;;;;;;14.90;4.30;;;;;;;15.27;39.04;100019.55;104838;1251;60633;-67
2023/10/10 14:49:29;;;;;;;12.30;3.90;;;;;;;15.08;39.25;100025.89;104655;1252;73708;-67
2023/10/10 14:52:00;;;;;;;12.90;3.50;;;;;;;14.88;39.67;100033.17;108447;1254;69529;-68
2023/10/10 14:54:27;;;;;;;7.30;3.00;;;;;;;14.69;40.27;100040.90;106244;1254;72715;-69
2023/10/10 14:56:55;;;;;;;8.00;2.80;;;;;;;14.48;40.20;100042.34;104404;1255;60555;-68
2023/10/10 14:59:24;;;;;;;;;;;;;;;14.28;40.44;100048.14;104565;1259;61748;-68
2023/10/10 15:01:59;;;;;;;6.90;3.20;;;;;;;14.14;41.02;100054.31;104465;1270;73506;-68
2023/10/10 15:04:29;;;;;;;5.80;2.70;;;;;;;13.96;41.20;100055.92;104331;1272;70860;-67
2023/10/10 15:06:57;;;;;;;7.50;3.40;;;;;;;13.76;41.44;100064.87;104356;1253;73274;-67
2023/10/10 15:09:25;;;;;;;;;;;;;;;13.63;41.87;100071.11;104276;1257;60684;-65
2023/10/10 15:11:54;;;;;;;5.00;1.90;;;;;;;13.46;42.24;100073.88;105003;1257;61481;-66
2023/10/10 15:14:21;;;;;;;3.30;1.70;;;;;;;13.29;42.46;100080.30;104830;1253;72824;-65
2023/10/10 15:16:48;;;;;;;5.20;3.20;;;;;;;13.17;42.86;100085.75;104345;1257;69574;-66